sensor_id;sensor_type;location;lat;lon;timestamp;temperature;humidity
18143;DHT22;9197;50.930;3.140;2024-03-07T08:57:41;14.00;1.00
18143;DHT22;9197;50.930;3.140;2024-03-07T09:00:12;14.40;99.90
18143;DHT22;9197;50.930;3.140;2024-03-07T09:02:49;14.60;1.00
18143;DHT22;9197;50.930;3.140;2024-03-07T09:05:18;13.80;99.90
18143;DHT22;9197;50.930;3.140;2024-03-07T09:07:45;13.40;99.90
18143;DHT22;9197;50.930;3.140;2024-03-07T09:10:13;13.50;99.90
18143;DHT22;9197;50.930;3.140;2024-03-07T09:12:40;13.60;99.90
18143;DHT22;9197;50.930;3.140;2024-03-07T09:15:10;13.00;99.90
18143;DHT22;9197;50.930;3.140;2024-03-07T09:17:39;13.50;99.90
18143;DHT22;9197;50.930;3.140;2024-03-07T09:20:08;13.50;99.90
18143;DHT22;9197;50.930;3.140;2024-03-07T09:22:40;13.40;99.90
18143;DHT22;9197;50.930;3.140;2024-03-07T09:25:08;14.30;99.90
18143;DHT22;9197;50.930;3.140;2024-03-07T09:27:35;14.70;99.90
18143;DHT22;9197;50.930;3.140;2024-03-07T09:30:04;14.80;57.70
18143;DHT22;9197;50.930;3.140;2024-03-07T09:32:34;15.90;8.00
18143;DHT22;9197;50.930;3.140;2024-03-07T09:35:03;16.70;1.00
18143;DHT22;9197;50.930;3.140;2024-03-07T09:37:33;17.20;1.00
18143;DHT22;9197;50.930;3.140;2024-03-07T09:40:00;17.00;1.00
18143;DHT22;9197;50.930;3.140;2024-03-07T09:42:27;16.80;1.00
18143;DHT22;9197;50.930;3.140;2024-03-07T09:44:56;15.80;1.00
18143;DHT22;9197;50.930;3.140;2024-03-07T09:47:25;14.90;1.00
18143;DHT22;9197;50.930;3.140;2024-03-07T09:49:54;15.10;1.00
18143;DHT22;9197;50.930;3.140;2024-03-07T09:52:23;15.60;1.00
18143;DHT22;9197;50.930;3.140;2024-03-07T09:54:50;16.00;1.00
18143;DHT22;9197;50.930;3.140;2024-03-07T09:57:18;16.40;1.00
18143;DHT22;9197;50.930;3.140;2024-03-07T09:59:46;16.90;1.00
18143;DHT22;9197;50.930;3.140;2024-03-07T10:02:15;16.80;1.00
18143;DHT22;9197;50.930;3.140;2024-03-07T10:04:44;16.70;1.00
18143;DHT22;9197;50.930;3.140;2024-03-07T10:07:15;16.30;1.00
18143;DHT22;9197;50.930;3.140;2024-03-07T10:09:43;15.40;1.00
18143;DHT22;9197;50.930;3.140;2024-03-07T10:12:11;14.60;1.00
18143;DHT22;9197;50.930;3.140;2024-03-07T10:14:48;14.50;1.00
18143;DHT22;9197;50.930;3.140;2024-03-07T10:17:16;13.70;1.00
18143;DHT22;9197;50.930;3.140;2024-03-07T10:19:46;13.10;1.00
18143;DHT22;9197;50.930;3.140;2024-03-07T10:22:15;12.70;99.90
18143;DHT22;9197;50.930;3.140;2024-03-07T10:24:49;13.00;99.90
18143;DHT22;9197;50.930;3.140;2024-03-07T10:27:18;13.40;99.90
18143;DHT22;9197;50.930;3.140;2024-03-07T10:29:47;13.20;1.10
18143;DHT22;9197;50.930;3.140;2024-03-07T10:32:19;12.70;99.90
18143;DHT22;9197;50.930;3.140;2024-03-07T10:34:46;12.50;99.90
18143;DHT22;9197;50.930;3.140;2024-03-07T10:37:15;12.40;99.90
18143;DHT22;9197;50.930;3.140;2024-03-07T10:39:43;12.40;99.90
18143;DHT22;9197;50.930;3.140;2024-03-07T10:42:15;12.00;99.90
18143;DHT22;9197;50.930;3.140;2024-03-07T10:44:44;11.80;44.60
18143;DHT22;9197;50.930;3.140;2024-03-07T10:47:15;11.90;1.00
18143;DHT22;9197;50.930;3.140;2024-03-07T10:49:53;12.10;1.00
18143;DHT22;9197;50.930;3.140;2024-03-07T10:52:29;12.10;1.00
18143;DHT22;9197;50.930;3.140;2024-03-07T10:55:08;12.10;1.00
18143;DHT22;9197;50.930;3.140;2024-03-07T10:57:50;11.90;1.00
18143;DHT22;9197;50.930;3.140;2024-03-07T11:00:21;11.70;1.00
18143;DHT22;9197;50.930;3.140;2024-03-07T11:02:56;11.80;99.90
18143;DHT22;9197;50.930;3.140;2024-03-07T11:05:26;12.20;1.00
18143;DHT22;9197;50.930;3.140;2024-03-07T11:07:58;12.50;99.90
18143;DHT22;9197;50.930;3.140;2024-03-07T11:10:28;12.70;99.90
18143;DHT22;9197;50.930;3.140;2024-03-07T11:12:57;12.90;99.90
18143;DHT22;9197;50.930;3.140;2024-03-07T11:15:26;12.30;99.90
18143;DHT22;9197;50.930;3.140;2024-03-07T11:17:55;12.40;99.90
18143;DHT22;9197;50.930;3.140;2024-03-07T11:20:23;12.40;99.90
18143;DHT22;9197;50.930;3.140;2024-03-07T11:22:51;12.40;99.90
18143;DHT22;9197;50.930;3.140;2024-03-07T11:25:22;12.40;1.00
18143;DHT22;9197;50.930;3.140;2024-03-07T11:27:52;12.60;99.90
18143;DHT22;9197;50.930;3.140;2024-03-07T11:30:21;12.30;99.90
18143;DHT22;9197;50.930;3.140;2024-03-07T11:32:50;12.20;99.90
18143;DHT22;9197;50.930;3.140;2024-03-07T11:35:19;12.20;99.90
